Time;durP1;ratioP1;P1;durP2;ratioP2;P2;SDS_P1;SDS_P2;PMS_P1;PMS_P2;Temp;Humidity;BMP_temperature;BMP_pressure;BME280_temperature;BME280_humidity;BME280_pressure;Samples;Min_cycle;Max_cycle;Signal;HPM_P1;HPM_P2
2023/01/25 00:00:16;;;;;;;27.42;19.90;;;2.80;99.90;;;;;;5000301;28;20102;-89
2023/01/25 00:02:41;;;;;;;25.77;18.63;;;2.80;99.90;;;;;;5016395;28;20041;-89
2023/01/25 00:05:07;;;;;;;27.08;18.75;;;2.80;99.90;;;;;;5000025;28;20489;-89
2023/01/25 00:07:35;;;;;;;27.40;18.52;;;2.70;99.90;;;;;;5000562;28;20493;-89
2023/01/25 00:10:01;;;;;;;25.35;18.08;;;2.80;99.90;;;;;;5032590;28;20030;-89
2023/01/25 00:12:26;;;;;;;24.70;18.67;;;2.80;99.90;;;;;;5033519;28;20512;-89
2023/01/25 00:14:52;;;;;;;24.85;17.90;;;2.70;99.90;;;;;;5018776;28;20037;-89
2023/01/25 00:17:18;;;;;;;26.13;18.42;;;2.80;99.90;;;;;;5052882;28;20073;-90
2023/01/25 00:19:43;;;;;;;26.67;18.63;;;2.70;99.90;;;;;;5052756;28;20543;-89
2023/01/25 00:22:09;;;;;;;23.55;17.77;;;2.80;99.90;;;;;;5019624;28;20045;-89
2023/01/25 00:24:35;;;;;;;25.17;19.27;;;2.80;99.90;;;;;;5052574;28;20111;-89
2023/01/25 00:27:01;;;;;;;25.63;17.95;;;2.70;99.90;;;;;;5036145;28;20037;-89
2023/01/25 00:29:27;;;;;;;27.77;19.08;;;2.70;99.90;;;;;;5052891;28;20128;-89
2023/01/25 00:31:57;;;;;;;27.55;18.08;;;2.70;99.90;;;;;;5052768;28;20053;-89
2023/01/25 00:34:29;;;;;;;25.38;17.90;;;2.70;99.90;;;;;;5053393;28;20029;-90
2023/01/25 00:37:11;;;;;;;25.90;17.92;;;2.70;99.90;;;;;;5052801;28;20041;-89
2023/01/25 00:39:38;;;;;;;25.75;17.50;;;2.60;99.90;;;;;;5052807;28;20485;-90
2023/01/25 00:42:04;;;;;;;25.25;17.92;;;2.60;99.90;;;;;;5031163;28;20059;-90
2023/01/25 00:44:30;;;;;;;26.10;18.05;;;2.50;99.90;;;;;;5077001;28;20013;-89
2023/01/25 00:46:55;;;;;;;23.98;17.25;;;2.40;99.90;;;;;;5060545;28;20021;-90
2023/01/25 00:49:24;;;;;;;24.33;17.67;;;2.40;99.90;;;;;;5024772;28;20071;-90
2023/01/25 00:51:51;;;;;;;24.20;17.27;;;2.40;99.90;;;;;;5056514;28;20045;-89
2023/01/25 00:54:17;;;;;;;25.08;17.80;;;2.30;99.90;;;;;;5039723;28;20041;-89
2023/01/25 00:56:43;;;;;;;25.33;18.48;;;2.30;99.90;;;;;;5039412;28;20366;-88
2023/01/25 00:59:10;;;;;;;26.73;18.70;;;2.30;99.90;;;;;;5055678;28;20488;-88
2023/01/25 01:01:36;;;;;;;26.95;18.85;;;2.30;99.90;;;;;;5056021;28;20087;-89
2023/01/25 01:04:02;;;;;;;27.73;19.45;;;2.30;99.90;;;;;;5039537;28;20114;-88
2023/01/25 01:06:28;;;;;;;29.42;20.10;;;2.30;99.90;;;;;;5039759;28;20037;-88
2023/01/25 01:08:53;;;;;;;26.17;19.20;;;2.40;99.90;;;;;;5056128;28;20040;-88
2023/01/25 01:11:19;;;;;;;28.15;20.02;;;2.40;99.90;;;;;;5039032;28;20040;-88
2023/01/25 01:13:45;;;;;;;25.20;17.48;;;2.40;99.90;;;;;;5022501;28;20045;-88
2023/01/25 01:16:12;;;;;;;25.08;18.13;;;2.40;99.90;;;;;;5038660;28;20076;-88
2023/01/25 01:18:42;;;;;;;26.70;18.02;;;2.40;99.90;;;;;;5055913;28;20029;-88
2023/01/25 01:21:09;;;;;;;27.48;18.85;;;2.40;99.90;;;;;;5056200;28;20373;-88
2023/01/25 01:23:35;;;;;;;24.52;18.10;;;2.30;99.90;;;;;;5056893;28;20052;-88
2023/01/25 01:26:02;;;;;;;27.02;19.25;;;2.30;99.90;;;;;;5055887;28;20056;-89
2023/01/25 01:28:29;;;;;;;25.67;18.00;;;2.30;99.90;;;;;;5040318;28;20033;-89
2023/01/25 01:31:02;;;;;;;28.58;20.65;;;2.30;99.90;;;;;;5040123;28;20037;-89
2023/01/25 01:33:28;;;;;;;26.05;18.83;;;2.30;99.90;;;;;;5057364;28;20051;-89
2023/01/25 01:35:53;;;;;;;26.05;18.58;;;2.30;99.90;;;;;;5039606;28;20033;-89
2023/01/25 01:38:19;;;;;;;25.40;18.90;;;2.30;99.90;;;;;;5039830;28;20033;-89
2023/01/25 01:40:46;;;;;;;27.80;19.20;;;2.30;99.90;;;;;;5056932;28;20036;-89
2023/01/25 01:43:19;;;;;;;26.20;19.48;;;2.30;99.90;;;;;;5062293;28;20037;-89
2023/01/25 01:45:49;;;;;;;27.23;18.30;;;2.20;99.90;;;;;;5064994;28;20045;-89
2023/01/25 01:48:22;;;;;;;27.55;19.77;;;2.30;99.90;;;;;;5059965;28;20485;-89
2023/01/25 01:50:51;;;;;;;26.35;18.75;;;2.20;99.90;;;;;;5058174;28;20135;-88
2023/01/25 01:53:18;;;;;;;27.77;19.42;;;2.20;99.90;;;;;;5056751;28;20063;-89
2023/01/25 01:55:44;;;;;;;27.00;19.23;;;2.20;99.90;;;;;;5058957;28;20029;-88
2023/01/25 01:58:10;;;;;;;27.25;20.20;;;2.20;99.90;;;;;;5041708;28;20109;-89
2023/01/25 02:00:39;;;;;;;27.17;19.67;;;2.20;99.90;;;;;;5056818;28;20064;-88
2023/01/25 02:03:05;;;;;;;29.00;20.50;;;2.20;99.90;;;;;;5067269;28;20037;-88
2023/01/25 02:05:45;;;;;;;27.58;18.80;;;2.20;99.90;;;;;;5059722;28;20473;-89
2023/01/25 02:08:13;;;;;;;30.05;20.50;;;2.30;99.90;;;;;;5057895;28;20029;-88
2023/01/25 02:10:41;;;;;;;28.23;19.60;;;2.20;99.90;;;;;;5043395;28;20055;-90
2023/01/25 02:13:07;;;;;;;27.33;18.48;;;2.20;99.90;;;;;;5074799;28;20037;-90
2023/01/25 02:15:43;;;;;;;28.10;19.85;;;2.20;99.90;;;;;;5075533;28;20159;-89
2023/01/25 02:18:09;;;;;;;27.05;19.30;;;2.20;99.90;;;;;;5086380;28;20032;-89
2023/01/25 02:20:38;;;;;;;27.88;19.33;;;2.10;99.90;;;;;;5031011;28;20094;-89
2023/01/25 02:23:10;;;;;;;26.20;18.55;;;2.10;99.90;;;;;;5072817;28;20132;-89
2023/01/25 02:25:36;;;;;;;28.65;19.63;;;2.00;99.90;;;;;;5076601;28;20100;-89
2023/01/25 02:28:08;;;;;;;28.00;19.92;;;2.00;99.90;;;;;;5080224;28;20067;-89
2023/01/25 02:30:34;;;;;;;29.35;20.60;;;2.00;99.90;;;;;;5068844;28;20044;-89
2023/01/25 02:33:00;;;;;;;29.92;20.50;;;2.00;99.90;;;;;;5042324;28;20041;-89
2023/01/25 02:36:03;;;;;;;29.90;21.27;;;2.10;99.90;;;;;;5041040;28;20064;-90
2023/01/25 02:38:33;;;;;;;29.85;20.88;;;2.10;99.90;;;;;;5020395;28;20032;-89
2023/01/25 02:41:17;;;;;;;32.05;21.48;;;2.10;99.90;;;;;;5059563;28;20472;-88
2023/01/25 02:43:42;;;;;;;29.40;20.40;;;2.10;99.90;;;;;;5058352;28;20039;-88
2023/01/25 02:46:21;;;;;;;31.95;22.30;;;2.10;99.90;;;;;;5041847;28;20037;-87
2023/01/25 02:48:47;;;;;;;31.38;21.83;;;2.20;99.90;;;;;;5057295;28;20024;-88
2023/01/25 02:51:13;;;;;;;32.50;22.17;;;2.20;99.90;;;;;;5057044;28;20033;-88
2023/01/25 02:53:40;;;;;;;29.95;21.20;;;2.20;99.90;;;;;;5056882;28;20039;-87
2023/01/25 02:56:06;;;;;;;31.98;22.05;;;2.20;99.90;;;;;;5058174;28;20033;-87
2023/01/25 02:58:34;;;;;;;31.25;21.55;;;2.20;99.90;;;;;;5024180;28;20499;-88
2023/01/25 03:01:00;;;;;;;30.55;19.95;;;2.30;99.90;;;;;;5040891;28;20041;-88
2023/01/25 03:03:28;;;;;;;30.55;21.33;;;2.30;99.90;;;;;;5056871;28;20045;-88
2023/01/25 03:05:54;;;;;;;30.20;20.52;;;2.30;99.90;;;;;;5040587;28;20036;-87
2023/01/25 03:08:20;;;;;;;29.75;21.60;;;2.20;99.90;;;;;;5023817;28;20078;-88
2023/01/25 03:10:54;;;;;;;31.52;21.83;;;2.20;99.90;;;;;;5024402;28;20040;-88
2023/01/25 03:13:20;;;;;;;33.42;23.58;;;2.20;99.90;;;;;;5057019;28;20472;-89
2023/01/25 03:15:46;;;;;;;32.10;21.65;;;2.20;99.90;;;;;;5074180;28;20055;-89
2023/01/25 03:18:14;;;;;;;31.65;21.73;;;2.20;99.90;;;;;;5024015;28;20068;-89
2023/01/25 03:20:39;;;;;;;29.05;21.25;;;2.30;99.90;;;;;;5039939;28;20033;-89
2023/01/25 03:23:05;;;;;;;30.25;21.55;;;2.30;99.90;;;;;;5023860;28;20456;-88
2023/01/25 03:25:31;;;;;;;31.38;20.80;;;2.30;99.90;;;;;;5058458;28;20016;-88
2023/01/25 03:27:56;;;;;;;32.03;22.38;;;2.30;99.90;;;;;;5064217;28;20040;-87
2023/01/25 03:30:22;;;;;;;29.50;20.88;;;2.30;99.90;;;;;;5054372;28;20036;-89
2023/01/25 03:32:49;;;;;;;31.95;21.52;;;2.30;99.90;;;;;;5075940;28;20032;-88
2023/01/25 03:35:15;;;;;;;31.20;21.60;;;2.30;99.90;;;;;;5059746;28;20178;-89
2023/01/25 03:37:40;;;;;;;31.58;22.33;;;2.30;99.90;;;;;;5042858;28;20324;-88
2023/01/25 03:40:07;;;;;;;32.85;22.88;;;2.30;99.90;;;;;;5071101;28;20135;-89
2023/01/25 03:42:32;;;;;;;33.17;23.77;;;2.30;99.90;;;;;;5040542;28;20499;-88
2023/01/25 03:44:58;;;;;;;33.08;23.40;;;2.30;99.90;;;;;;5040148;28;20033;-88
2023/01/25 03:47:23;;;;;;;29.58;19.83;;;2.30;99.90;;;;;;5056412;28;20517;-89
2023/01/25 03:49:49;;;;;;;33.45;23.23;;;2.30;99.90;;;;;;5056840;28;20078;-88
2023/01/25 03:52:15;;;;;;;34.83;23.08;;;2.20;99.90;;;;;;5039906;28;20048;-88
2023/01/25 03:54:40;;;;;;;31.23;20.95;;;2.30;99.90;;;;;;5023689;28;20040;-89
2023/01/25 03:57:06;;;;;;;33.58;23.25;;;2.30;99.90;;;;;;5039553;28;20044;-89
2023/01/25 03:59:32;;;;;;;34.53;23.48;;;2.20;99.90;;;;;;5039615;28;20033;-89
2023/01/25 04:01:57;;;;;;;32.10;22.52;;;2.20;99.90;;;;;;5056052;28;20450;-89
2023/01/25 04:04:23;;;;;;;33.20;22.95;;;2.20;99.90;;;;;;5040044;28;20071;-89
2023/01/25 04:06:49;;;;;;;32.70;22.55;;;2.30;99.90;;;;;;5039309;28;20491;-89
2023/01/25 04:09:14;;;;;;;35.60;23.63;;;2.10;99.90;;;;;;5039759;28;20040;-88
2023/01/25 04:11:40;;;;;;;36.17;23.77;;;2.00;99.90;;;;;;5056077;28;20041;-89
2023/01/25 04:14:06;;;;;;;34.80;23.20;;;2.00;99.90;;;;;;5039720;28;20056;-89
2023/01/25 04:16:32;;;;;;;34.28;23.65;;;1.90;99.90;;;;;;5039388;28;20087;-88
2023/01/25 04:18:57;;;;;;;34.30;23.33;;;1.80;99.90;;;;;;5056663;28;20432;-88
2023/01/25 04:21:26;;;;;;;36.75;24.90;;;1.80;99.90;;;;;;5039371;28;20032;-89
2023/01/25 04:23:51;;;;;;;34.05;23.08;;;1.70;99.90;;;;;;5056196;28;20111;-89
2023/01/25 04:26:17;;;;;;;34.60;23.70;;;1.70;99.90;;;;;;5042464;28;20055;-89
2023/01/25 04:28:43;;;;;;;35.97;23.83;;;1.70;99.90;;;;;;5043430;28;20162;-89
2023/01/25 04:31:08;;;;;;;36.35;24.58;;;1.80;99.90;;;;;;5060171;28;20368;-89
2023/01/25 04:33:34;;;;;;;37.08;24.55;;;1.80;99.90;;;;;;5042972;28;20053;-89
2023/01/25 04:36:00;;;;;;;39.55;26.00;;;1.80;99.90;;;;;;5059617;28;20040;-88
2023/01/25 04:38:26;;;;;;;40.90;25.48;;;1.80;99.90;;;;;;5059615;28;20418;-89
2023/01/25 04:40:54;;;;;;;36.83;24.35;;;1.80;99.90;;;;;;5042808;28;20120;-88
2023/01/25 04:43:20;;;;;;;36.70;24.25;;;1.90;99.90;;;;;;5026385;28;20059;-89
2023/01/25 04:45:46;;;;;;;39.83;26.10;;;1.90;99.90;;;;;;5042894;28;20483;-89
2023/01/25 04:48:12;;;;;;;37.97;24.92;;;1.90;99.90;;;;;;5059550;28;20078;-89
2023/01/25 04:50:40;;;;;;;36.95;25.13;;;1.90;99.90;;;;;;5042945;28;20041;-89
2023/01/25 04:53:07;;;;;;;38.40;26.02;;;1.90;99.90;;;;;;5059679;28;20036;-90
2023/01/25 04:55:35;;;;;;;37.28;24.90;;;1.90;99.90;;;;;;5077997;28;20040;-89
2023/01/25 04:58:02;;;;;;;38.63;26.20;;;1.90;99.90;;;;;;5060834;28;20028;-89
2023/01/25 05:00:29;;;;;;;39.45;26.52;;;1.80;99.90;;;;;;5059709;28;20496;-89
2023/01/25 05:02:55;;;;;;;38.67;25.85;;;1.90;99.90;;;;;;5059483;28;20123;-89
2023/01/25 05:05:21;;;;;;;41.70;27.38;;;1.80;99.90;;;;;;5044994;28;20087;-89
2023/01/25 05:07:46;;;;;;;39.00;26.25;;;1.90;99.90;;;;;;5052818;28;20032;-89
2023/01/25 05:10:12;;;;;;;38.55;25.52;;;1.80;99.90;;;;;;5034637;28;20033;-89
2023/01/25 05:12:38;;;;;;;37.47;25.38;;;1.90;99.90;;;;;;5031490;28;20036;-89
2023/01/25 05:15:04;;;;;;;40.40;25.83;;;1.80;99.90;;;;;;5059718;28;20400;-88
2023/01/25 05:17:30;;;;;;;38.05;24.75;;;1.80;99.90;;;;;;5059408;28;20168;-89
2023/01/25 05:19:56;;;;;;;38.38;25.95;;;1.80;99.90;;;;;;5059114;28;20033;-89
2023/01/25 05:22:22;;;;;;;39.08;25.75;;;1.70;99.90;;;;;;5042321;28;20051;-89
2023/01/25 05:24:48;;;;;;;38.15;24.38;;;1.70;99.90;;;;;;5058822;28;20063;-88
2023/01/25 05:27:16;;;;;;;37.20;24.55;;;1.60;99.90;;;;;;5059167;28;20036;-88
2023/01/25 05:29:44;;;;;;;36.58;24.30;;;1.60;99.90;;;;;;5059433;28;20123;-87
2023/01/25 05:32:15;;;;;;;37.35;23.88;;;1.60;99.90;;;;;;5059450;28;20048;-88
2023/01/25 05:34:41;;;;;;;39.38;25.95;;;1.60;99.90;;;;;;5059743;28;20486;-86
2023/01/25 05:37:10;;;;;;;37.38;23.92;;;1.60;99.90;;;;;;5031031;28;20477;-90
2023/01/25 05:39:36;;;;;;;37.47;25.13;;;1.50;99.90;;;;;;5041420;28;20025;-88
2023/01/25 05:42:02;;;;;;;40.47;25.55;;;1.60;99.90;;;;;;5024030;28;20046;-88
2023/01/25 05:44:28;;;;;;;36.33;23.88;;;1.60;99.90;;;;;;5041372;28;20025;-88
2023/01/25 05:46:54;;;;;;;38.10;23.85;;;1.60;99.90;;;;;;5024120;28;20033;-89
2023/01/25 05:49:20;;;;;;;38.38;25.17;;;1.60;99.90;;;;;;5046245;28;20047;-89
2023/01/25 05:51:46;;;;;;;35.55;23.38;;;1.70;99.90;;;;;;5045869;28;20025;-90
2023/01/25 05:54:15;;;;;;;37.83;23.55;;;1.70;99.90;;;;;;5052116;28;20040;-88
2023/01/25 05:56:41;;;;;;;35.40;23.35;;;1.70;99.90;;;;;;5038861;28;20037;-87
2023/01/25 05:59:06;;;;;;;37.92;25.33;;;1.60;99.90;;;;;;5038582;28;20045;-88
2023/01/25 06:01:32;;;;;;;37.67;24.50;;;1.60;99.90;;;;;;5020985;28;20076;-87
2023/01/25 06:03:58;;;;;;;40.25;26.02;;;1.70;99.90;;;;;;5020985;28;20095;-89
2023/01/25 06:06:24;;;;;;;38.20;25.08;;;1.70;99.90;;;;;;5022698;28;20044;-90
2023/01/25 06:08:50;;;;;;;39.97;25.50;;;1.70;99.90;;;;;;5021945;28;20104;-89
2023/01/25 06:11:21;;;;;;;42.00;26.17;;;1.80;99.90;;;;;;5039936;28;20049;-89
2023/01/25 06:13:50;;;;;;;38.72;24.90;;;1.70;99.90;;;;;;5037852;28;20065;-89
2023/01/25 06:16:17;;;;;;;38.03;24.63;;;1.80;99.90;;;;;;5032294;28;20139;-89
2023/01/25 06:18:43;;;;;;;42.67;26.95;;;1.80;99.90;;;;;;5054066;28;20037;-90
2023/01/25 06:21:09;;;;;;;44.72;27.33;;;1.80;99.90;;;;;;5054609;28;20099;-88
2023/01/25 06:23:35;;;;;;;41.13;26.98;;;1.80;99.90;;;;;;5036716;28;20179;-90
2023/01/25 06:26:14;;;;;;;42.75;28.40;;;1.80;99.90;;;;;;5037055;28;20127;-89
2023/01/25 06:28:39;;;;;;;40.90;26.95;;;1.80;99.90;;;;;;5054468;28;20033;-90
2023/01/25 06:31:09;;;;;;;43.35;27.45;;;1.80;99.90;;;;;;5022061;28;20056;-89
2023/01/25 06:33:36;;;;;;;43.13;28.37;;;1.80;99.90;;;;;;5055900;28;20037;-89
2023/01/25 06:36:08;;;;;;;43.85;28.02;;;1.80;99.90;;;;;;5054810;28;20043;-90
2023/01/25 06:38:34;;;;;;;42.22;27.90;;;1.80;99.90;;;;;;5054785;28;20032;-89
2023/01/25 06:41:05;;;;;;;47.42;30.20;;;1.90;99.90;;;;;;5038060;28;20123;-89
2023/01/25 06:43:32;;;;;;;44.80;29.45;;;1.90;99.90;;;;;;5054491;28;20101;-88
2023/01/25 06:46:03;;;;;;;44.55;29.23;;;1.90;99.90;;;;;;5053491;28;20120;-88
2023/01/25 06:48:36;;;;;;;44.08;27.88;;;1.90;99.90;;;;;;5053796;28;20547;-89
2023/01/25 06:51:05;;;;;;;44.42;28.67;;;1.90;99.90;;;;;;5053672;28;20029;-87
2023/01/25 06:53:33;;;;;;;41.88;26.92;;;1.90;99.90;;;;;;5053443;28;20029;-88
2023/01/25 06:56:05;;;;;;;43.97;26.95;;;1.90;99.90;;;;;;5054159;28;20037;-88
2023/01/25 06:58:31;;;;;;;44.17;26.48;;;1.90;99.90;;;;;;5053515;28;20029;-89
2023/01/25 07:01:14;;;;;;;44.00;26.98;;;1.90;99.90;;;;;;5053781;28;20029;-89
2023/01/25 07:03:40;;;;;;;45.47;28.42;;;1.80;99.90;;;;;;5038622;28;20064;-87
2023/01/25 07:06:08;;;;;;;46.58;29.65;;;1.80;99.90;;;;;;5053589;28;20036;-88
2023/01/25 07:08:34;;;;;;;49.05;30.77;;;1.80;99.90;;;;;;5052493;28;20515;-89
2023/01/25 07:11:02;;;;;;;46.00;28.80;;;1.90;99.90;;;;;;5053248;28;20036;-88
2023/01/25 07:13:29;;;;;;;48.05;28.75;;;1.90;99.90;;;;;;5053616;28;20094;-88
2023/01/25 07:16:00;;;;;;;45.67;28.80;;;1.90;99.90;;;;;;5036597;28;20052;-88
2023/01/25 07:18:28;;;;;;;;;;;1.80;99.90;;;;;;5053676;28;20127;-89
2023/01/25 07:20:54;;;;;;;48.90;29.58;;;1.80;99.90;;;;;;5053922;28;19979;-88
2023/01/25 07:23:20;;;;;;;48.30;29.15;;;1.80;99.90;;;;;;5036707;28;20067;-89
2023/01/25 07:25:49;;;;;;;47.28;29.05;;;1.80;99.90;;;;;;5036543;28;20440;-89
2023/01/25 07:28:16;;;;;;;48.25;28.73;;;1.80;99.90;;;;;;5053301;28;20033;-87
2023/01/25 07:30:42;;;;;;;48.13;30.35;;;1.80;99.90;;;;;;5036986;28;20547;-89
2023/01/25 07:33:09;;;;;;;47.60;29.58;;;1.80;99.90;;;;;;5036397;28;20049;-89
2023/01/25 07:35:35;;;;;;;45.17;26.85;;;1.80;99.90;;;;;;5053276;28;20499;-89
2023/01/25 07:38:01;;;;;;;48.30;29.42;;;1.80;99.90;;;;;;5054011;28;20113;-89
2023/01/25 07:40:27;;;;;;;46.72;29.00;;;1.80;99.90;;;;;;5036468;28;20440;-88
2023/01/25 07:42:53;;;;;;;48.53;30.42;;;1.80;99.90;;;;;;5052783;28;20045;-89
2023/01/25 07:45:19;;;;;;;48.05;28.90;;;1.70;99.90;;;;;;5053350;28;20361;-91
2023/01/25 07:47:46;;;;;;;48.72;27.95;;;1.70;99.90;;;;;;5053216;28;20033;-90
2023/01/25 07:50:16;;;;;;;43.13;26.67;;;1.70;99.90;;;;;;5041258;28;20176;-90
2023/01/25 07:52:42;;;;;;;47.92;28.70;;;1.70;99.90;;;;;;5027810;28;20076;-89
2023/01/25 07:55:08;;;;;;;48.15;29.30;;;1.70;99.90;;;;;;5039056;28;20080;-90
2023/01/25 07:57:34;;;;;;;50.53;31.25;;;1.60;99.90;;;;;;5052014;28;20036;-90
2023/01/25 08:00:04;;;;;;;53.42;31.98;;;1.70;99.90;;;;;;5055843;28;20044;-88
2023/01/25 08:02:32;;;;;;;50.30;31.55;;;1.70;99.90;;;;;;5031666;28;20374;-89
2023/01/25 08:04:58;;;;;;;50.50;30.20;;;1.70;99.90;;;;;;5030194;28;20029;-89
2023/01/25 08:07:28;;;;;;;51.38;30.50;;;1.70;99.90;;;;;;5023338;28;20037;-89
2023/01/25 08:09:54;;;;;;;51.90;30.98;;;1.70;99.90;;;;;;5066330;28;20052;-91
2023/01/25 08:12:21;;;;;;;51.55;31.65;;;1.70;99.90;;;;;;5067728;28;20020;-91
2023/01/25 08:14:49;;;;;;;50.70;30.05;;;1.70;99.90;;;;;;5087230;28;20021;-89
2023/01/25 08:17:15;;;;;;;49.97;29.55;;;1.70;99.90;;;;;;5045305;28;20041;-90
2023/01/25 08:19:40;;;;;;;46.00;28.30;;;1.80;99.90;;;;;;5050811;28;20039;-87
2023/01/25 08:22:07;;;;;;;45.20;28.40;;;1.80;99.90;;;;;;5036569;28;20528;-87
2023/01/25 08:24:33;;;;;;;49.47;29.77;;;1.80;99.90;;;;;;5046785;28;20036;-89
2023/01/25 08:26:59;;;;;;;47.83;28.65;;;1.80;99.90;;;;;;5052415;28;20041;-88
2023/01/25 08:29:26;;;;;;;46.58;28.67;;;1.80;99.90;;;;;;5038173;28;20040;-88
2023/01/25 08:31:55;;;;;;;48.22;29.25;;;1.80;99.90;;;;;;5039900;28;20051;-88
2023/01/25 08:34:20;;;;;;;48.58;28.35;;;1.80;99.90;;;;;;5024867;28;20021;-88
2023/01/25 08:36:48;;;;;;;48.83;29.15;;;1.80;99.90;;;;;;5062451;28;20497;-89
2023/01/25 08:39:16;;;;;;;50.42;29.15;;;1.80;99.90;;;;;;5052517;28;20021;-88
2023/01/25 08:41:42;;;;;;;48.38;28.65;;;1.80;99.90;;;;;;5059295;28;20051;-88
2023/01/25 08:44:08;;;;;;;48.97;27.55;;;1.70;99.90;;;;;;5047875;28;20041;-88
2023/01/25 08:46:34;;;;;;;51.17;29.95;;;1.70;99.90;;;;;;5054171;28;20036;-88
2023/01/25 08:49:03;;;;;;;53.17;31.15;;;1.70;99.90;;;;;;5023742;28;20029;-89
2023/01/25 08:51:31;;;;;;;50.13;28.90;;;1.70;99.90;;;;;;5054107;28;20112;-88
2023/01/25 08:54:00;;;;;;;49.95;29.77;;;1.70;99.90;;;;;;5048913;28;20063;-91
2023/01/25 08:56:26;;;;;;;49.30;29.35;;;1.70;99.90;;;;;;5066753;28;20076;-88
2023/01/25 08:58:52;;;;;;;50.97;29.75;;;1.60;99.90;;;;;;5022788;28;20067;-88
2023/01/25 09:01:19;;;;;;;51.00;30.17;;;1.70;99.90;;;;;;5035826;28;20036;-88
2023/01/25 09:03:47;;;;;;;50.05;31.20;;;1.60;99.90;;;;;;5045509;28;20122;-88
2023/01/25 09:06:14;;;;;;;50.83;30.05;;;1.70;99.90;;;;;;5055353;28;20024;-88
2023/01/25 09:08:40;;;;;;;51.13;29.83;;;1.70;99.90;;;;;;5046643;28;20025;-88
2023/01/25 09:11:08;;;;;;;51.80;30.42;;;1.70;99.90;;;;;;5063024;28;20481;-88
2023/01/25 09:13:34;;;;;;;51.63;29.83;;;1.70;99.90;;;;;;5055350;28;20465;-88
2023/01/25 09:16:02;;;;;;;56.17;33.58;;;1.70;99.90;;;;;;5057804;28;20059;-91
2023/01/25 09:18:29;;;;;;;52.13;30.65;;;1.70;99.90;;;;;;5074515;28;20068;-89
2023/01/25 09:21:04;;;;;;;52.17;31.30;;;1.70;99.90;;;;;;5064330;28;20056;-87
2023/01/25 09:23:29;;;;;;;52.35;30.88;;;1.70;99.90;;;;;;5080928;28;20032;-89
2023/01/25 09:25:59;;;;;;;52.25;30.20;;;1.70;99.90;;;;;;5071864;28;20121;-88
2023/01/25 09:28:28;;;;;;;50.50;28.73;;;1.70;99.90;;;;;;5069855;28;20039;-89
2023/01/25 09:31:03;;;;;;;53.70;30.48;;;1.70;99.90;;;;;;5068241;28;20035;-92
2023/01/25 09:33:32;;;;;;;53.10;31.48;;;1.60;99.90;;;;;;5052561;28;20033;-89
2023/01/25 09:35:57;;;;;;;54.70;30.55;;;1.60;99.90;;;;;;5067525;28;20083;-88
2023/01/25 09:38:24;;;;;;;52.75;31.42;;;1.50;99.90;;;;;;5061791;28;20028;-88
2023/01/25 09:41:15;;;;;;;54.72;32.35;;;1.60;99.90;;;;;;5053791;28;20444;-87
2023/01/25 09:44:06;;;;;;;50.08;29.35;;;1.60;99.90;;;;;;5052613;28;20037;-87
2023/01/25 09:46:32;;;;;;;;;;;1.60;99.90;;;;;;5057278;28;20032;-87
2023/01/25 09:49:16;;;;;;;53.20;30.05;;;1.60;99.90;;;;;;5050065;28;19905;-88
2023/01/25 09:51:56;;;;;;;51.97;29.60;;;1.60;99.90;;;;;;5049219;28;20041;-88
2023/01/25 09:54:27;;;;;;;53.00;30.05;;;1.60;99.90;;;;;;5047292;28;20068;-87
2023/01/25 09:56:59;;;;;;;51.45;30.13;;;1.60;99.90;;;;;;5050181;28;20062;-87
2023/01/25 09:59:29;;;;;;;50.83;29.55;;;1.60;99.90;;;;;;5041368;28;20458;-88
2023/01/25 10:02:14;;;;;;;51.10;29.65;;;1.60;99.90;;;;;;5037258;28;20037;-88
2023/01/25 10:04:43;;;;;;;50.42;29.40;;;1.60;99.90;;;;;;5038089;28;20091;-89
2023/01/25 10:07:29;;;;;;;52.15;31.05;;;1.70;99.90;;;;;;5044833;28;20029;-88
2023/01/25 10:10:01;;;;;;;54.20;29.58;;;1.70;99.90;;;;;;5067714;28;20028;-88
2023/01/25 10:12:34;;;;;;;53.65;29.65;;;1.70;99.90;;;;;;5048858;28;20127;-88
2023/01/25 10:14:59;;;;;;;48.92;29.13;;;1.70;99.90;;;;;;5054080;28;20089;-88
2023/01/25 10:17:40;;;;;;;51.92;29.83;;;1.70;99.90;;;;;;5048402;28;20435;-88
2023/01/25 10:20:22;;;;;;;53.60;28.67;;;1.70;99.90;;;;;;5062360;28;20049;-88
2023/01/25 10:23:22;;;;;;;49.38;28.83;;;1.70;99.90;;;;;;5056443;28;20061;-89
2023/01/25 10:25:58;;;;;;;48.80;27.88;;;1.70;99.90;;;;;;5019109;28;20056;-88
2023/01/25 10:28:48;;;;;;;50.08;28.88;;;1.70;99.90;;;;;;5051051;28;20025;-87
2023/01/25 10:31:37;;;;;;;51.15;27.85;;;1.70;99.90;;;;;;5067062;28;20032;-89
2023/01/25 10:34:33;;;;;;;52.97;29.17;;;1.70;99.90;;;;;;5070191;28;20055;-89
2023/01/25 10:37:25;;;;;;;51.95;30.13;;;1.60;99.90;;;;;;5067257;28;20096;-87
2023/01/25 10:39:55;;;;;;;57.53;30.95;;;1.60;99.90;;;;;;5045593;28;20568;-88
2023/01/25 10:42:23;;;;;;;56.28;30.48;;;1.60;99.90;;;;;;5050756;28;20033;-89
2023/01/25 10:44:48;;;;;;;57.05;31.23;;;1.60;99.90;;;;;;5048935;28;20435;-88
2023/01/25 10:47:23;;;;;;;53.30;29.80;;;1.60;99.90;;;;;;5033843;28;20025;-88
2023/01/25 10:49:54;;;;;;;57.28;32.40;;;1.50;99.90;;;;;;5048768;28;20039;-88
2023/01/25 10:52:31;;;;;;;60.55;33.92;;;1.60;99.90;;;;;;5029440;28;20053;-88
2023/01/25 10:55:16;;;;;;;54.47;30.77;;;1.60;99.90;;;;;;5052138;28;20052;-88
2023/01/25 10:57:51;;;;;;;54.45;30.45;;;1.60;99.90;;;;;;5052466;28;20131;-88
2023/01/25 11:00:39;;;;;;;62.30;32.13;;;1.60;99.90;;;;;;5057288;28;20055;-89
2023/01/25 11:03:05;;;;;;;57.30;32.13;;;1.60;99.90;;;;;;5050819;28;20038;-88
2023/01/25 11:05:36;;;;;;;56.85;31.73;;;1.70;99.90;;;;;;5050434;28;20044;-87
2023/01/25 11:08:24;;;;;;;62.08;33.85;;;1.70;99.90;;;;;;5049381;28;20064;-88
2023/01/25 11:10:51;;;;;;;63.63;33.00;;;1.70;99.90;;;;;;5048880;28;20025;-88
2023/01/25 11:13:32;;;;;;;64.47;34.33;;;1.70;99.90;;;;;;5039384;28;20037;-87
2023/01/25 11:16:00;;;;;;;63.50;32.60;;;1.70;99.90;;;;;;5059123;28;20044;-88
2023/01/25 11:18:34;;;;;;;66.38;34.25;;;1.70;99.90;;;;;;5056991;28;20062;-87
2023/01/25 11:21:20;;;;;;;64.75;33.88;;;1.70;99.90;;;;;;5051940;28;20024;-88
2023/01/25 11:24:08;;;;;;;67.03;33.72;;;1.60;99.90;;;;;;5046223;28;20049;-88
2023/01/25 11:26:39;;;;;;;57.40;31.80;;;1.60;99.90;;;;;;5054755;28;20419;-91
2023/01/25 11:29:12;;;;;;;56.75;31.85;;;1.60;99.90;;;;;;5043986;28;20025;-88
2023/01/25 11:31:44;;;;;;;58.70;30.92;;;1.60;99.90;;;;;;5054016;28;20477;-90
2023/01/25 11:34:13;;;;;;;59.40;31.77;;;1.60;99.90;;;;;;5043910;28;20120;-90
2023/01/25 11:36:54;;;;;;;62.30;32.80;;;1.60;99.90;;;;;;5040646;28;21337;-91
2023/01/25 11:40:11;;;;;;;56.13;29.25;;;1.60;99.90;;;;;;5049167;28;20109;-90
2023/01/25 11:43:01;;;;;;;58.22;31.45;;;1.60;99.90;;;;;;4968223;28;20514;-91
2023/01/25 11:45:36;;;;;;;57.15;31.80;;;1.60;99.90;;;;;;5048700;28;20491;-88
2023/01/25 11:48:18;;;;;;;61.03;32.50;;;1.60;99.90;;;;;;5052513;28;20061;-88
2023/01/25 11:50:53;;;;;;;56.38;32.58;;;1.60;99.90;;;;;;5048961;28;20056;-88
2023/01/25 11:53:45;;;;;;;59.60;31.30;;;1.60;99.90;;;;;;5047940;28;20084;-91
2023/01/25 11:56:38;;;;;;;64.55;33.75;;;1.60;99.90;;;;;;5043085;28;20038;-87
2023/01/25 11:59:44;;;;;;;60.22;30.40;;;1.60;99.90;;;;;;5052681;28;20087;-87
2023/01/25 12:02:25;;;;;;;59.67;32.50;;;1.70;99.90;;;;;;5051004;28;20029;-86
2023/01/25 12:05:24;;;;;;;60.45;31.55;;;1.60;99.90;;;;;;5055050;28;20032;-86
2023/01/25 12:08:11;;;;;;;61.08;32.15;;;1.50;99.90;;;;;;5060890;28;20379;-87
2023/01/25 12:11:10;;;;;;;58.33;31.52;;;1.50;99.90;;;;;;5054572;28;20044;-87
2023/01/25 12:13:57;;;;;;;57.55;30.35;;;1.40;99.90;;;;;;5053941;28;20064;-87
2023/01/25 12:16:50;;;;;;;58.88;31.63;;;1.20;99.90;;;;;;5053225;28;20487;-87
2023/01/25 12:19:28;;;;;;;60.72;30.95;;;1.10;99.90;;;;;;5053267;28;20036;-91
2023/01/25 12:21:57;;;;;;;61.95;32.55;;;1.10;99.90;;;;;;5056762;28;20071;-88
2023/01/25 12:24:38;;;;;;;60.92;32.78;;;1.10;99.90;;;;;;5050692;28;20487;-87
2023/01/25 12:27:20;;;;;;;62.05;31.52;;;1.10;99.90;;;;;;5045144;28;20061;-89
2023/01/25 12:30:01;;;;;;;63.25;33.28;;;1.10;99.90;;;;;;5053644;28;20044;-87
2023/01/25 12:32:33;;;;;;;;;;;1.20;99.90;;;;;;5061956;28;20083;-87
2023/01/25 12:35:36;;;;;;;58.47;31.02;;;1.10;99.90;;;;;;5045029;28;19904;-86
2023/01/25 12:38:09;;;;;;;63.63;31.95;;;1.10;99.90;;;;;;5043129;28;20373;-88
2023/01/25 12:41:13;;;;;;;66.57;33.33;;;1.10;99.90;;;;;;5051292;28;20032;-86
2023/01/25 12:43:47;;;;;;;68.93;33.67;;;1.00;99.90;;;;;;5017741;28;20052;-86
2023/01/25 12:46:24;;;;;;;68.78;35.25;;;1.00;99.90;;;;;;5047126;28;20029;-87
2023/01/25 12:48:53;;;;;;;68.93;34.05;;;1.10;99.90;;;;;;5055841;28;20060;-88
2023/01/25 12:51:23;;;;;;;65.80;33.80;;;1.10;99.90;;;;;;5054830;28;20029;-87
2023/01/25 12:53:51;;;;;;;65.93;33.60;;;1.10;99.90;;;;;;5062496;28;20037;-90